Time;durP1;ratioP1;P1;durP2;ratioP2;P2;SDS_P1;SDS_P2;PMS_P1;PMS_P2;Temp;Humidity;BMP_temperature;BMP_pressure;BME280_temperature;BME280_humidity;BME280_pressure;Samples;Min_cycle;Max_cycle;Signal;HPM_P1;HPM_P2
2022/10/07 00:01:32;;;;;;;0.28;0.28;;;;;;;;;;5012379;28;20506;-80
2022/10/07 00:03:58;;;;;;;0.10;0.10;;;;;;;;;;5016782;28;20431;-80
2022/10/07 00:06:24;;;;;;;0.60;0.40;;;;;;;;;;5030205;28;20422;-79
2022/10/07 00:08:51;;;;;;;0.10;0.10;;;;;;;;;;4995184;28;20427;-79
2022/10/07 00:11:19;;;;;;;0.10;0.10;;;;;;;;;;5014162;28;20431;-79
2022/10/07 00:13:46;;;;;;;0.20;0.20;;;;;;;;;;5013298;28;20761;-80
2022/10/07 00:16:14;;;;;;;0.10;0.10;;;;;;;;;;5014779;28;20419;-79
2022/10/07 00:18:40;;;;;;;0.10;0.10;;;;;;;;;;5013317;28;20422;-79
2022/10/07 00:21:08;;;;;;;0.10;0.10;;;;;;;;;;4987649;28;20926;-79
2022/10/07 00:23:34;;;;;;;0.10;0.10;;;;;;;;;;5021492;28;20419;-79
2022/10/07 00:26:04;;;;;;;0.10;0.10;;;;;;;;;;5028867;28;20419;-79
2022/10/07 00:28:30;;;;;;;0.00;0.00;;;;;;;;;;5029256;28;20427;-79
2022/10/07 00:30:57;;;;;;;0.10;0.10;;;;;;;;;;5011149;28;20502;-80
2022/10/07 00:33:23;;;;;;;0.00;0.00;;;;;;;;;;5010124;28;20423;-79
2022/10/07 00:35:49;;;;;;;0.10;0.10;;;;;;;;;;5030543;28;20422;-79
2022/10/07 00:38:15;;;;;;;0.10;0.10;;;;;;;;;;5014073;28;20476;-79
2022/10/07 00:40:41;;;;;;;0.10;0.10;;;;;;;;;;4980845;28;20723;-79
2022/10/07 00:43:21;;;;;;;0.10;0.10;;;;;;;;;;5025630;28;20416;-78
2022/10/07 00:45:47;;;;;;;0.10;0.10;;;;;;;;;;4998109;28;20479;-79
2022/10/07 00:48:15;;;;;;;0.10;0.10;;;;;;;;;;5029701;28;20430;-79
2022/10/07 00:50:41;;;;;;;0.00;0.00;;;;;;;;;;4995382;28;20522;-79
2022/10/07 00:53:09;;;;;;;0.10;0.10;;;;;;;;;;5026152;28;20422;-79
2022/10/07 00:55:35;;;;;;;0.10;0.10;;;;;;;;;;5024599;28;20892;-79
2022/10/07 00:58:02;;;;;;;1.80;0.80;;;;;;;;;;5011474;28;20972;-79
2022/10/07 01:00:29;;;;;;;0.10;0.10;;;;;;;;;;5028935;28;20553;-79
2022/10/07 01:02:55;;;;;;;0.50;0.30;;;;;;;;;;5029662;28;20415;-80
2022/10/07 01:05:21;;;;;;;0.10;0.10;;;;;;;;;;5012840;28;20502;-79
2022/10/07 01:07:47;;;;;;;0.10;0.10;;;;;;;;;;5029653;28;20514;-79
2022/10/07 01:10:17;;;;;;;0.50;0.50;;;;;;;;;;5010983;28;20426;-79
2022/10/07 01:12:50;;;;;;;0.40;0.40;;;;;;;;;;5010840;28;20426;-79
2022/10/07 01:15:16;;;;;;;0.17;0.17;;;;;;;;;;5011273;28;20484;-80
2022/10/07 01:17:45;;;;;;;0.10;0.10;;;;;;;;;;5012753;28;20758;-78
2022/10/07 01:20:18;;;;;;;0.60;0.60;;;;;;;;;;5014558;28;20485;-78
2022/10/07 01:23:10;;;;;;;0.10;0.10;;;;;;;;;;5012746;28;20418;-79
2022/10/07 01:25:40;;;;;;;0.30;0.30;;;;;;;;;;5018779;28;20438;-79
2022/10/07 01:28:12;;;;;;;0.10;0.10;;;;;;;;;;5027173;28;20427;-78
2022/10/07 01:30:40;;;;;;;0.60;0.40;;;;;;;;;;5027719;28;20750;-79
2022/10/07 01:33:10;;;;;;;0.10;0.10;;;;;;;;;;5009341;28;20450;-79
2022/10/07 01:35:36;;;;;;;0.10;0.10;;;;;;;;;;5010597;28;20557;-79
2022/10/07 01:38:07;;;;;;;0.10;0.10;;;;;;;;;;4997196;28;20427;-79
2022/10/07 01:40:36;;;;;;;0.10;0.10;;;;;;;;;;5027664;28;20419;-79
2022/10/07 01:43:02;;;;;;;0.55;0.28;;;;;;;;;;5009378;28;20428;-79
2022/10/07 01:45:29;;;;;;;0.50;0.50;;;;;;;;;;5029407;28;20901;-78
2022/10/07 01:47:55;;;;;;;0.90;0.30;;;;;;;;;;5025784;28;20419;-78
2022/10/07 01:50:23;;;;;;;0.10;0.10;;;;;;;;;;5012467;28;20427;-79
2022/10/07 01:52:52;;;;;;;0.00;0.00;;;;;;;;;;5010976;28;20525;-79
2022/10/07 01:55:27;;;;;;;0.60;0.60;;;;;;;;;;5007986;28;20423;-79
2022/10/07 01:58:00;;;;;;;0.13;0.08;;;;;;;;;;5003911;28;20597;-79
2022/10/07 02:00:26;;;;;;;0.10;0.10;;;;;;;;;;5014272;28;20422;-79
2022/10/07 02:02:56;;;;;;;0.10;0.10;;;;;;;;;;5030007;28;20436;-78
2022/10/07 02:05:32;;;;;;;0.80;0.50;;;;;;;;;;5027635;28;20423;-79
2022/10/07 02:08:01;;;;;;;0.10;0.10;;;;;;;;;;5008281;28;20487;-80
2022/10/07 02:10:30;;;;;;;0.10;0.10;;;;;;;;;;5001613;28;20429;-79
2022/10/07 02:13:02;;;;;;;0.00;0.00;;;;;;;;;;5013338;28;20434;-80
2022/10/07 02:15:31;;;;;;;0.10;0.10;;;;;;;;;;5003950;28;20486;-79
2022/10/07 02:18:01;;;;;;;0.10;0.10;;;;;;;;;;5007803;28;20425;-79
2022/10/07 02:20:30;;;;;;;0.10;0.10;;;;;;;;;;5010630;28;20435;-79
2022/10/07 02:22:58;;;;;;;0.10;0.10;;;;;;;;;;5007399;28;20448;-79
2022/10/07 02:25:24;;;;;;;0.10;0.10;;;;;;;;;;5011974;28;20532;-79
2022/10/07 02:27:52;;;;;;;0.20;0.10;;;;;;;;;;5020048;28;20745;-79
2022/10/07 02:30:19;;;;;;;0.10;0.10;;;;;;;;;;5001772;28;20456;-79
2022/10/07 02:32:54;;;;;;;0.10;0.10;;;;;;;;;;5011586;28;20511;-79
2022/10/07 02:35:23;;;;;;;0.10;0.10;;;;;;;;;;5025599;28;20970;-78
2022/10/07 02:37:51;;;;;;;0.05;0.05;;;;;;;;;;5011110;28;20430;-78
2022/10/07 02:40:17;;;;;;;0.10;0.10;;;;;;;;;;5025447;28;20419;-78
2022/10/07 02:42:51;;;;;;;0.10;0.10;;;;;;;;;;5021045;28;20415;-78
2022/10/07 02:45:27;;;;;;;0.10;0.10;;;;;;;;;;5006954;28;21034;-79
2022/10/07 02:48:03;;;;;;;0.10;0.10;;;;;;;;;;5008226;28;20778;-79
2022/10/07 02:50:36;;;;;;;0.10;0.10;;;;;;;;;;5007533;28;20417;-79
2022/10/07 02:53:03;;;;;;;0.20;0.20;;;;;;;;;;5011942;28;20455;-79
2022/10/07 02:55:30;;;;;;;0.10;0.10;;;;;;;;;;5009854;28;20546;-78
2022/10/07 02:57:58;;;;;;;0.10;0.10;;;;;;;;;;5010684;28;20432;-79
2022/10/07 03:00:24;;;;;;;0.10;0.10;;;;;;;;;;5009680;28;20056;-79
2022/10/07 03:02:50;;;;;;;0.10;0.10;;;;;;;;;;5012613;28;20041;-78
2022/10/07 03:05:20;;;;;;;0.05;0.05;;;;;;;;;;5023883;28;20052;-79
2022/10/07 03:07:52;;;;;;;0.10;0.10;;;;;;;;;;5012230;28;20136;-78
2022/10/07 03:10:18;;;;;;;0.10;0.10;;;;;;;;;;5007455;28;20069;-79
2022/10/07 03:12:44;;;;;;;0.10;0.10;;;;;;;;;;5010567;28;20053;-79
2022/10/07 03:15:11;;;;;;;0.10;0.10;;;;;;;;;;5012585;28;20519;-78
2022/10/07 03:17:38;;;;;;;0.55;0.55;;;;;;;;;;5011191;28;20045;-78
2022/10/07 03:20:04;;;;;;;0.10;0.10;;;;;;;;;;5015084;28;20052;-78
2022/10/07 03:22:30;;;;;;;0.25;0.25;;;;;;;;;;5011771;28;20056;-78
2022/10/07 03:24:57;;;;;;;0.10;0.10;;;;;;;;;;5030230;28;20036;-79
2022/10/07 03:27:23;;;;;;;0.10;0.10;;;;;;;;;;5000040;28;20112;-78
2022/10/07 03:29:49;;;;;;;0.13;0.13;;;;;;;;;;5029826;28;20143;-79
2022/10/07 03:32:15;;;;;;;0.10;0.10;;;;;;;;;;4997766;28;20049;-78
2022/10/07 03:34:41;;;;;;;0.10;0.10;;;;;;;;;;5010407;28;20119;-78
2022/10/07 03:37:07;;;;;;;0.10;0.10;;;;;;;;;;5015779;28;20049;-78
2022/10/07 03:39:33;;;;;;;0.10;0.10;;;;;;;;;;5032682;28;20053;-78
2022/10/07 03:41:59;;;;;;;0.10;0.10;;;;;;;;;;4999359;28;20041;-79
2022/10/07 03:44:25;;;;;;;0.10;0.10;;;;;;;;;;5012549;28;20084;-79
2022/10/07 03:46:52;;;;;;;0.10;0.10;;;;;;;;;;5031595;28;20049;-79
2022/10/07 03:49:21;;;;;;;0.10;0.10;;;;;;;;;;5029839;28;20461;-78
2022/10/07 03:51:47;;;;;;;0.10;0.10;;;;;;;;;;5032193;28;20049;-78
2022/10/07 03:54:13;;;;;;;0.00;0.00;;;;;;;;;;5031459;28;20038;-79
2022/10/07 03:56:39;;;;;;;0.10;0.10;;;;;;;;;;5032136;28;20041;-79
2022/10/07 03:59:05;;;;;;;0.10;0.10;;;;;;;;;;5014085;28;20059;-79
2022/10/07 04:01:31;;;;;;;0.10;0.10;;;;;;;;;;4995306;28;20053;-79
2022/10/07 04:04:00;;;;;;;0.10;0.10;;;;;;;;;;5020971;28;20092;-78
2022/10/07 04:06:28;;;;;;;0.15;0.15;;;;;;;;;;5026580;28;20129;-78
2022/10/07 04:08:54;;;;;;;0.20;0.20;;;;;;;;;;5008694;28;20099;-79
2022/10/07 04:11:21;;;;;;;0.10;0.10;;;;;;;;;;5010131;28;20057;-80
2022/10/07 04:13:48;;;;;;;0.10;0.10;;;;;;;;;;5016366;28;20042;-80
2022/10/07 04:16:14;;;;;;;0.00;0.00;;;;;;;;;;4983366;28;20047;-77
2022/10/07 04:18:42;;;;;;;0.10;0.10;;;;;;;;;;5031047;28;20125;-79
2022/10/07 04:21:09;;;;;;;0.10;0.10;;;;;;;;;;5005403;28;20041;-82
2022/10/07 04:23:35;;;;;;;0.10;0.10;;;;;;;;;;5027681;28;20069;-80
2022/10/07 04:26:06;;;;;;;0.10;0.10;;;;;;;;;;5031906;28;20468;-79
2022/10/07 04:28:32;;;;;;;0.10;0.10;;;;;;;;;;5010607;28;20045;-80
2022/10/07 04:30:58;;;;;;;0.63;0.63;;;;;;;;;;4996832;28;20057;-79
2022/10/07 04:33:24;;;;;;;;;;;;;;;;;;4994100;28;20413;-80
2022/10/07 04:35:50;;;;;;;0.10;0.10;;;;;;;;;;5007575;28;19952;-78
2022/10/07 04:38:17;;;;;;;;;;;;;;;;;;5013221;28;20038;-79
2022/10/07 04:40:43;;;;;;;;;;;;;;;;;;5010958;28;19926;-79
2022/10/07 04:43:18;;;;;;;;;;;;;;;;;;5023945;28;19924;-77
2022/10/07 04:45:44;;;;;;;;;;;;;;;;;;5006795;28;20371;-78
2022/10/07 04:48:10;;;;;;;;;;;;;;;;;;5005302;28;19917;-77
2022/10/07 04:50:37;;;;;;;;;;;;;;;;;;5023834;28;20367;-79
2022/10/07 04:53:03;;;;;;;;;;;;;;;;;;5023562;28;19917;-77
2022/10/07 04:55:29;;;;;;;;;;;;;;;;;;5007992;28;19925;-79
2022/10/07 04:57:55;;;;;;;;;;;;;;;;;;5007785;28;19961;-79
2022/10/07 05:00:21;;;;;;;;;;;;;;;;;;5005069;28;19928;-80
2022/10/07 05:02:49;;;;;;;;;;;;;;;;;;5010109;28;19963;-77
2022/10/07 05:05:15;;;;;;;;;;;;;;;;;;5008373;28;19929;-79
2022/10/07 05:07:41;;;;;;;;;;;;;;;;;;5009915;28;20368;-79
2022/10/07 05:10:07;;;;;;;;;;;;;;;;;;5009223;28;19921;-79
2022/10/07 05:12:33;;;;;;;;;;;;;;;;;;5003406;28;19965;-80
2022/10/07 05:15:00;;;;;;;;;;;;;;;;;;5029414;28;19920;-78
2022/10/07 05:17:26;;;;;;;;;;;;;;;;;;5009450;28;19964;-78
2022/10/07 05:19:52;;;;;;;;;;;;;;;;;;5009425;28;19969;-77
2022/10/07 05:22:18;;;;;;;;;;;;;;;;;;5009885;28;19921;-77
2022/10/07 05:24:44;;;;;;;;;;;;;;;;;;5020289;28;19922;-77
2022/10/07 05:27:10;;;;;;;;;;;;;;;;;;5012837;28;19972;-77
2022/10/07 05:29:36;;;;;;;;;;;;;;;;;;5012847;28;20071;-77
2022/10/07 05:32:01;;;;;;;;;;;;;;;;;;5022087;28;19921;-77
2022/10/07 05:34:27;;;;;;;;;;;;;;;;;;5030827;28;20865;-77
2022/10/07 05:36:53;;;;;;;;;;;;;;;;;;5030456;28;19921;-78
2022/10/07 05:39:19;;;;;;;;;;;;;;;;;;5029127;28;19924;-77
2022/10/07 05:41:45;;;;;;;;;;;;;;;;;;5014171;28;19925;-78
2022/10/07 05:44:11;;;;;;;;;;;;;;;;;;5030604;28;19927;-77
2022/10/07 05:46:39;;;;;;;0.68;0.63;;;;;;;;;;5013598;28;19921;-77
2022/10/07 05:49:05;;;;;;;0.90;0.90;;;;;;;;;;5031331;28;20045;-77
2022/10/07 05:51:31;;;;;;;0.10;0.10;;;;;;;;;;5032577;28;20088;-77
2022/10/07 05:53:57;;;;;;;0.10;0.10;;;;;;;;;;5031223;28;20148;-77
2022/10/07 05:56:23;;;;;;;0.10;0.10;;;;;;;;;;5014316;28;20140;-77
2022/10/07 05:58:50;;;;;;;0.10;0.10;;;;;;;;;;5028936;28;20045;-78
2022/10/07 06:01:18;;;;;;;0.10;0.10;;;;;;;;;;5031391;28;20041;-77
2022/10/07 06:03:48;;;;;;;0.10;0.10;;;;;;;;;;5014615;28;20049;-77
2022/10/07 06:06:14;;;;;;;2.72;0.88;;;;;;;;;;5014380;28;20604;-78
2022/10/07 06:08:40;;;;;;;0.43;0.25;;;;;;;;;;5031003;28;20455;-77
2022/10/07 06:13:52;;;;;;;0.10;0.10;;;;;;;;;;5009106;28;20060;-77
2022/10/07 06:16:19;;;;;;;0.10;0.10;;;;;;;;;;5003155;28;20077;-78
2022/10/07 06:18:46;;;;;;;0.40;0.40;;;;;;;;;;5029328;28;20059;-77
2022/10/07 06:21:12;;;;;;;0.10;0.10;;;;;;;;;;4996899;28;20478;-77
2022/10/07 06:23:38;;;;;;;0.10;0.10;;;;;;;;;;5024768;28;20423;-77
2022/10/07 06:26:05;;;;;;;0.50;0.50;;;;;;;;;;5010073;28;20432;-77
2022/10/07 06:28:41;;;;;;;0.10;0.10;;;;;;;;;;5025587;28;20473;-77
2022/10/07 06:31:08;;;;;;;0.10;0.10;;;;;;;;;;4994707;28;20433;-76
2022/10/07 06:33:34;;;;;;;0.10;0.10;;;;;;;;;;5028708;28;20438;-77
2022/10/07 06:36:11;;;;;;;0.55;0.20;;;;;;;;;;5030320;28;20423;-77
2022/10/07 06:38:37;;;;;;;0.10;0.10;;;;;;;;;;5011379;28;20495;-77
2022/10/07 06:41:04;;;;;;;0.20;0.20;;;;;;;;;;5013515;28;20423;-77
2022/10/07 06:43:34;;;;;;;0.20;0.20;;;;;;;;;;5029132;28;20461;-79
2022/10/07 06:46:02;;;;;;;0.10;0.10;;;;;;;;;;5010906;28;20441;-77
2022/10/07 06:48:29;;;;;;;0.60;0.60;;;;;;;;;;5028894;28;21501;-77
2022/10/07 06:50:59;;;;;;;0.10;0.10;;;;;;;;;;5022258;28;20458;-78
2022/10/07 06:53:25;;;;;;;1.25;0.43;;;;;;;;;;5024673;28;20423;-77
2022/10/07 06:55:58;;;;;;;13.90;0.68;;;;;;;;;;5026859;28;20702;-78
2022/10/07 06:58:25;;;;;;;0.10;0.10;;;;;;;;;;5029607;28;20429;-77
2022/10/07 07:00:51;;;;;;;0.00;0.00;;;;;;;;;;5030589;28;20550;-77
2022/10/07 07:03:18;;;;;;;0.30;0.30;;;;;;;;;;5034232;28;20418;-77
2022/10/07 07:05:44;;;;;;;0.10;0.10;;;;;;;;;;5022466;28;20439;-77
2022/10/07 07:08:11;;;;;;;0.10;0.10;;;;;;;;;;5018884;28;20921;-77
2022/10/07 07:10:37;;;;;;;0.10;0.10;;;;;;;;;;5032912;28;20426;-78
2022/10/07 07:13:06;;;;;;;0.17;0.17;;;;;;;;;;4996047;28;20427;-78
2022/10/07 07:15:33;;;;;;;0.10;0.10;;;;;;;;;;5034312;28;20821;-78
2022/10/07 07:17:59;;;;;;;0.20;0.20;;;;;;;;;;5033675;28;20431;-77
2022/10/07 07:20:25;;;;;;;0.25;0.25;;;;;;;;;;5033362;28;20423;-78
2022/10/07 07:22:51;;;;;;;0.10;0.10;;;;;;;;;;4995015;28;20479;-78
2022/10/07 07:25:18;;;;;;;0.30;0.30;;;;;;;;;;5034622;28;20419;-77
2022/10/07 07:27:46;;;;;;;0.10;0.10;;;;;;;;;;5033623;28;20488;-78
2022/10/07 07:30:12;;;;;;;0.10;0.10;;;;;;;;;;5032553;28;20450;-77
2022/10/07 07:32:39;;;;;;;0.10;0.10;;;;;;;;;;5031618;28;20423;-78
2022/10/07 07:35:06;;;;;;;0.10;0.10;;;;;;;;;;5011095;28;20464;-77
2022/10/07 07:37:32;;;;;;;0.30;0.30;;;;;;;;;;5029882;28;20787;-78
2022/10/07 07:39:59;;;;;;;0.90;0.30;;;;;;;;;;5016108;28;20438;-77
2022/10/07 07:42:26;;;;;;;0.10;0.10;;;;;;;;;;5027003;28;20431;-79
2022/10/07 07:44:54;;;;;;;0.10;0.10;;;;;;;;;;5030536;28;20476;-78
2022/10/07 07:47:20;;;;;;;0.10;0.10;;;;;;;;;;5032982;28;20426;-77
2022/10/07 07:49:48;;;;;;;0.20;0.20;;;;;;;;;;5033286;28;20463;-78
2022/10/07 07:52:14;;;;;;;0.10;0.10;;;;;;;;;;5024222;28;20634;-79
2022/10/07 07:54:40;;;;;;;0.10;0.10;;;;;;;;;;5013757;28;20496;-79
2022/10/07 07:57:07;;;;;;;0.00;0.00;;;;;;;;;;5033039;28;20427;-78
2022/10/07 07:59:33;;;;;;;0.70;0.70;;;;;;;;;;5032742;28;20423;-78
2022/10/07 08:01:59;;;;;;;0.20;0.20;;;;;;;;;;5016809;28;20428;-78
2022/10/07 08:04:25;;;;;;;0.10;0.10;;;;;;;;;;5032954;28;20415;-78
2022/10/07 08:06:51;;;;;;;0.10;0.10;;;;;;;;;;5040158;28;20429;-78
2022/10/07 08:09:17;;;;;;;0.30;0.30;;;;;;;;;;5028258;28;20424;-78
2022/10/07 08:11:44;;;;;;;0.10;0.10;;;;;;;;;;5020160;28;20430;-79
2022/10/07 08:14:14;;;;;;;0.10;0.10;;;;;;;;;;5032134;28;20431;-79
2022/10/07 08:16:41;;;;;;;0.10;0.10;;;;;;;;;;5025497;28;20426;-80
2022/10/07 08:19:07;;;;;;;0.10;0.10;;;;;;;;;;4995953;28;20818;-78
2022/10/07 08:21:33;;;;;;;0.10;0.10;;;;;;;;;;5017120;28;20458;-78
2022/10/07 08:23:59;;;;;;;0.10;0.10;;;;;;;;;;5028541;28;20480;-78
2022/10/07 08:26:27;;;;;;;0.10;0.10;;;;;;;;;;5014163;28;20507;-78
2022/10/07 08:28:53;;;;;;;0.20;0.20;;;;;;;;;;5032606;28;20427;-78
2022/10/07 08:31:20;;;;;;;0.30;0.30;;;;;;;;;;5032048;28;20510;-78
2022/10/07 08:33:47;;;;;;;0.10;0.10;;;;;;;;;;5032274;28;20433;-79
2022/10/07 08:36:23;;;;;;;0.10;0.10;;;;;;;;;;5021009;28;20428;-78
2022/10/07 08:38:49;;;;;;;0.10;0.10;;;;;;;;;;5030213;28;20458;-77
2022/10/07 08:41:15;;;;;;;0.20;0.20;;;;;;;;;;5015642;28;20427;-78
2022/10/07 08:43:44;;;;;;;0.10;0.10;;;;;;;;;;5015187;28;20441;-78
2022/10/07 08:46:12;;;;;;;0.10;0.10;;;;;;;;;;5023706;28;20429;-78
2022/10/07 08:48:38;;;;;;;2.90;0.90;;;;;;;;;;5027555;28;20423;-78
2022/10/07 08:51:20;;;;;;;0.10;0.10;;;;;;;;;;5031848;28;20462;-78
2022/10/07 08:53:50;;;;;;;0.10;0.10;;;;;;;;;;5031575;28;20431;-75
2022/10/07 08:56:17;;;;;;;0.10;0.10;;;;;;;;;;5001189;28;21060;-74
2022/10/07 08:58:47;;;;;;;0.10;0.10;;;;;;;;;;5026779;28;20423;-76
2022/10/07 09:01:21;;;;;;;0.10;0.10;;;;;;;;;;5031602;28;20441;-77
2022/10/07 09:03:57;;;;;;;0.30;0.30;;;;;;;;;;4998475;28;20438;-78
2022/10/07 09:06:28;;;;;;;0.20;0.20;;;;;;;;;;5030580;28;20430;-82
2022/10/07 09:08:58;;;;;;;0.90;0.50;;;;;;;;;;5010581;28;20430;-85
2022/10/07 09:11:24;;;;;;;0.10;0.10;;;;;;;;;;5027990;28;20756;-79
2022/10/07 09:13:57;;;;;;;0.40;0.40;;;;;;;;;;5032026;28;20435;-80
2022/10/07 09:16:26;;;;;;;0.50;0.50;;;;;;;;;;5014869;28;20462;-79
2022/10/07 09:18:55;;;;;;;1.15;0.25;;;;;;;;;;5029947;28;20427;-76
2022/10/07 09:21:24;;;;;;;0.20;0.20;;;;;;;;;;5015023;28;20439;-75
2022/10/07 09:23:53;;;;;;;0.15;0.15;;;;;;;;;;5030861;28;20949;-76
2022/10/07 09:26:19;;;;;;;0.90;0.60;;;;;;;;;;5031701;28;21072;-75
2022/10/07 09:28:45;;;;;;;0.85;0.85;;;;;;;;;;5029023;28;20787;-76
2022/10/07 09:31:13;;;;;;;0.10;0.10;;;;;;;;;;5032142;28;20497;-75
2022/10/07 09:33:51;;;;;;;2.80;1.20;;;;;;;;;;5031863;28;20786;-75
2022/10/07 09:36:18;;;;;;;0.10;0.10;;;;;;;;;;5014642;28;20511;-75
2022/10/07 09:38:46;;;;;;;1.20;0.40;;;;;;;;;;5031307;28;20461;-75
2022/10/07 09:41:16;;;;;;;0.10;0.10;;;;;;;;;;5031382;28;20825;-75
2022/10/07 09:43:57;;;;;;;0.50;0.50;;;;;;;;;;5032003;28;20813;-75
2022/10/07 09:46:45;;;;;;;0.40;0.25;;;;;;;;;;5027333;28;20437;-75
2022/10/07 09:49:23;;;;;;;0.60;0.60;;;;;;;;;;5012224;28;20437;-75
2022/10/07 09:51:57;;;;;;;1.00;0.70;;;;;;;;;;5024681;28;20481;-76
2022/10/07 09:54:24;;;;;;;0.13;0.13;;;;;;;;;;5014432;28;20431;-75
2022/10/07 09:56:55;;;;;;;0.20;0.20;;;;;;;;;;5031243;28;20454;-76
2022/10/07 09:59:23;;;;;;;0.10;0.10;;;;;;;;;;5031550;28;20434;-75
2022/10/07 10:01:50;;;;;;;1.50;1.40;;;;;;;;;;5031896;28;20434;-75
2022/10/07 10:04:17;;;;;;;0.25;0.15;;;;;;;;;;5031824;28;20427;-75
2022/10/07 10:06:50;;;;;;;0.10;0.10;;;;;;;;;;5031691;28;20497;-77
2022/10/07 10:09:20;;;;;;;0.10;0.10;;;;;;;;;;5020107;28;20454;-75
2022/10/07 10:11:46;;;;;;;0.10;0.10;;;;;;;;;;5024704;28;20418;-76
2022/10/07 10:14:36;;;;;;;0.10;0.10;;;;;;;;;;5002113;28;20434;-77
2022/10/07 10:17:03;;;;;;;0.70;0.50;;;;;;;;;;5011185;28;20427;-76
2022/10/07 10:19:29;;;;;;;0.10;0.10;;;;;;;;;;5012198;28;20477;-77
2022/10/07 10:21:56;;;;;;;0.10;0.10;;;;;;;;;;5008906;28;20432;-76
2022/10/07 10:27:33;;;;;;;0.10;0.10;;;;;;;;;;5010357;28;20435;-77
2022/10/07 10:30:06;;;;;;;0.13;0.13;;;;;;;;;;5030416;28;20423;-77
2022/10/07 10:32:32;;;;;;;0.20;0.20;;;;;;;;;;5030514;28;20445;-77
2022/10/07 10:35:07;;;;;;;0.10;0.10;;;;;;;;;;5030576;28;20423;-77
2022/10/07 10:37:36;;;;;;;0.10;0.10;;;;;;;;;;5016882;28;20431;-78
2022/10/07 10:40:20;;;;;;;0.90;0.60;;;;;;;;;;5023169;28;20423;-77
2022/10/07 10:43:05;;;;;;;0.10;0.10;;;;;;;;;;5029270;28;20506;-77
2022/10/07 10:45:31;;;;;;;0.50;0.20;;;;;;;;;;5027606;28;20853;-77
2022/10/07 10:48:06;;;;;;;0.10;0.10;;;;;;;;;;5018120;28;20510;-77
2022/10/07 10:50:40;;;;;;;0.50;0.50;;;;;;;;;;5023257;28;20431;-76
2022/10/07 10:53:20;;;;;;;0.10;0.10;;;;;;;;;;5029748;28;20511;-76
2022/10/07 10:56:08;;;;;;;0.10;0.10;;;;;;;;;;5028596;28;20436;-77
2022/10/07 10:58:34;;;;;;;0.57;0.57;;;;;;;;;;5031115;28;20427;-77
2022/10/07 11:01:27;;;;;;;0.10;0.10;;;;;;;;;;5029438;28;20513;-77
2022/10/07 11:04:09;;;;;;;0.10;0.10;;;;;;;;;;5016055;28;20755;-77
2022/10/07 11:06:37;;;;;;;0.20;0.20;;;;;;;;;;5023650;28;20434;-78
2022/10/07 11:09:03;;;;;;;0.10;0.10;;;;;;;;;;5000771;28;20427;-79
2022/10/07 11:11:29;;;;;;;0.10;0.10;;;;;;;;;;5013700;28;20431;-80
2022/10/07 11:13:57;;;;;;;0.05;0.05;;;;;;;;;;4996008;28;20502;-77
2022/10/07 11:16:36;;;;;;;0.20;0.20;;;;;;;;;;5011514;28;20424;-76
2022/10/07 11:19:06;;;;;;;0.20;0.10;;;;;;;;;;5025915;28;20429;-77
2022/10/07 11:21:36;;;;;;;0.10;0.10;;;;;;;;;;5028880;28;20771;-76
2022/10/07 11:24:13;;;;;;;11.73;0.63;;;;;;;;;;5030042;28;20778;-76
2022/10/07 11:27:00;;;;;;;0.20;0.20;;;;;;;;;;5030030;28;20533;-76
2022/10/07 11:29:31;;;;;;;0.10;0.10;;;;;;;;;;5013284;28;20442;-76
2022/10/07 11:32:16;;;;;;;0.10;0.10;;;;;;;;;;5024635;28;20432;-76
2022/10/07 11:34:52;;;;;;;0.30;0.30;;;;;;;;;;5030264;28;20423;-76
2022/10/07 11:37:30;;;;;;;0.10;0.10;;;;;;;;;;5029035;28;20467;-77
2022/10/07 11:39:56;;;;;;;0.30;0.20;;;;;;;;;;5030002;28;20432;-79
2022/10/07 11:42:24;;;;;;;0.10;0.10;;;;;;;;;;5013026;28;20480;-77
2022/10/07 11:45:00;;;;;;;0.10;0.10;;;;;;;;;;5034272;28;20429;-76
2022/10/07 11:47:30;;;;;;;0.20;0.20;;;;;;;;;;5032925;28;20426;-77
2022/10/07 11:50:16;;;;;;;0.20;0.20;;;;;;;;;;5015649;28;20419;-76
2022/10/07 11:52:44;;;;;;;0.25;0.25;;;;;;;;;;5013051;28;20397;-77
2022/10/07 11:55:19;;;;;;;0.30;0.30;;;;;;;;;;5023897;28;20431;-77
2022/10/07 11:57:49;;;;;;;0.10;0.10;;;;;;;;;;5033310;28;20429;-77
2022/10/07 12:00:24;;;;;;;0.40;0.40;;;;;;;;;;5014732;28;20427;-76
2022/10/07 12:02:50;;;;;;;0.10;0.10;;;;;;;;;;5032640;28;20423;-76
2022/10/07 12:05:35;;;;;;;0.20;0.20;;;;;;;;;;5029042;28;20518;-76
2022/10/07 12:08:20;;;;;;;0.25;0.15;;;;;;;;;;5022710;28;20430;-78
2022/10/07 12:10:46;;;;;;;0.10;0.10;;;;;;;;;;5006973;28;20431;-76
2022/10/07 12:13:12;;;;;;;0.10;0.10;;;;;;;;;;5014989;28;20564;-76
2022/10/07 12:15:40;;;;;;;0.20;0.20;;;;;;;;;;5015858;28;20933;-78
2022/10/07 12:18:06;;;;;;;0.10;0.10;;;;;;;;;;5013246;28;20423;-77
2022/10/07 12:20:43;;;;;;;0.20;0.20;;;;;;;;;;5022589;28;20910;-77
2022/10/07 12:23:19;;;;;;;0.30;0.30;;;;;;;;;;5025830;28;20454;-77
2022/10/07 12:25:49;;;;;;;0.10;0.10;;;;;;;;;;5033561;28;20517;-77
2022/10/07 12:28:17;;;;;;;0.08;0.08;;;;;;;;;;5014034;28;20769;-76
2022/10/07 12:30:51;;;;;;;0.10;0.10;;;;;;;;;;5033033;28;20427;-77
2022/10/07 12:33:35;;;;;;;0.10;0.10;;;;;;;;;;5014262;28;20490;-77
2022/10/07 12:36:20;;;;;;;0.10;0.10;;;;;;;;;;5000766;28;20433;-77
2022/10/07 12:38:58;;;;;;;0.20;0.20;;;;;;;;;;5030167;28;20439;-76
2022/10/07 12:41:45;;;;;;;0.60;0.50;;;;;;;;;;5032595;28;20809;-77
2022/10/07 12:44:17;;;;;;;1.50;0.60;;;;;;;;;;5019902;28;21030;-77
2022/10/07 12:46:49;;;;;;;0.10;0.10;;;;;;;;;;5016092;28;20455;-77
2022/10/07 12:49:35;;;;;;;0.10;0.10;;;;;;;;;;5031446;28;20501;-77
2022/10/07 12:52:26;;;;;;;0.20;0.20;;;;;;;;;;5033262;28;20423;-77
2022/10/07 12:54:55;;;;;;;0.10;0.10;;;;;;;;;;5022559;28;20442;-77
2022/10/07 12:57:22;;;;;;;3.10;0.23;;;;;;;;;;5015648;28;20436;-77
2022/10/07 12:59:51;;;;;;;0.10;0.10;;;;;;;;;;5031246;28;20423;-77
2022/10/07 13:02:21;;;;;;;0.10;0.10;;;;;;;;;;5030517;28;20435;-77
2022/10/07 13:05:05;;;;;;;0.10;0.10;;;;;;;;;;5032228;28;20446;-79
2022/10/07 13:07:34;;;;;;;0.20;0.20;;;;;;;;;;5014717;28;20992;-80
2022/10/07 13:10:06;;;;;;;0.10;0.10;;;;;;;;;;5031385;28;20431;-79
2022/10/07 13:12:53;;;;;;;0.10;0.10;;;;;;;;;;5032700;28;20488;-78
2022/10/07 13:15:30;;;;;;;0.10;0.10;;;;;;;;;;5015845;28;20957;-76
2022/10/07 13:18:02;;;;;;;0.40;0.40;;;;;;;;;;5031587;28;20419;-76
2022/10/07 13:20:36;;;;;;;0.10;0.10;;;;;;;;;;5030540;28;21134;-76
2022/10/07 13:23:21;;;;;;;0.10;0.10;;;;;;;;;;5019463;28;20938;-76
2022/10/07 13:25:51;;;;;;;0.80;0.50;;;;;;;;;;5030243;28;20890;-76
2022/10/07 13:28:20;;;;;;;0.10;0.10;;;;;;;;;;5005072;28;20924;-77
2022/10/07 13:30:46;;;;;;;0.10;0.10;;;;;;;;;;5016052;28;20469;-84
2022/10/07 13:33:15;;;;;;;0.10;0.10;;;;;;;;;;4996682;28;20485;-78
2022/10/07 13:35:42;;;;;;;0.10;0.10;;;;;;;;;;5013183;28;20514;-77
2022/10/07 13:38:24;;;;;;;0.20;0.20;;;;;;;;;;5030960;28;20545;-78
2022/10/07 13:40:56;;;;;;;4.80;1.20;;;;;;;;;;5008682;28;20937;-79
2022/10/07 13:43:24;;;;;;;0.20;0.20;;;;;;;;;;5031351;28;20430;-77
2022/10/07 13:45:50;;;;;;;0.70;0.40;;;;;;;;;;5014656;28;20457;-78
2022/10/07 13:48:27;;;;;;;0.10;0.10;;;;;;;;;;5031792;28;20430;-78
2022/10/07 13:50:55;;;;;;;0.20;0.20;;;;;;;;;;5021734;28;20442;-78
2022/10/07 13:53:22;;;;;;;0.50;0.30;;;;;;;;;;5008762;28;20431;-78
2022/10/07 13:55:48;;;;;;;0.70;0.70;;;;;;;;;;5031479;28;20910;-77
2022/10/07 13:58:15;;;;;;;0.10;0.10;;;;;;;;;;5031613;28;20536;-78
2022/10/07 14:00:44;;;;;;;0.20;0.20;;;;;;;;;;5031979;28;20427;-78
2022/10/07 14:03:14;;;;;;;0.20;0.20;;;;;;;;;;5002380;28;20467;-78
2022/10/07 14:05:48;;;;;;;0.10;0.10;;;;;;;;;;5023233;28;20499;-78
2022/10/07 14:08:17;;;;;;;0.10;0.10;;;;;;;;;;5029834;28;20426;-85
2022/10/07 14:10:56;;;;;;;0.25;0.25;;;;;;;;;;5013595;28;20446;-85
2022/10/07 14:13:23;;;;;;;8.80;0.80;;;;;;;;;;5011965;28;20434;-85
2022/10/07 14:15:54;;;;;;;0.25;0.25;;;;;;;;;;5012629;28;20485;-78
2022/10/07 14:18:20;;;;;;;0.20;0.20;;;;;;;;;;5010593;28;20999;-79
2022/10/07 14:20:56;;;;;;;4.70;0.70;;;;;;;;;;5009402;28;20433;-80
2022/10/07 14:23:27;;;;;;;0.10;0.10;;;;;;;;;;5009376;28;20529;-80
2022/10/07 14:25:54;;;;;;;0.45;0.45;;;;;;;;;;5029583;28;21063;-83
2022/10/07 14:28:23;;;;;;;0.35;0.35;;;;;;;;;;5014763;28;20434;-81
2022/10/07 14:37:02;;;;;;;0.10;0.10;;;;;;;;;;5022862;28;20918;-79
2022/10/07 14:39:31;;;;;;;0.30;0.30;;;;;;;;;;5028262;28;20827;-79
2022/10/07 14:41:57;;;;;;;0.10;0.10;;;;;;;;;;5028442;28;20917;-78
2022/10/07 14:44:24;;;;;;;0.10;0.10;;;;;;;;;;5018881;28;20498;-82
2022/10/07 14:47:01;;;;;;;0.10;0.10;;;;;;;;;;5019952;28;20407;-83
2022/10/07 14:49:27;;;;;;;0.40;0.40;;;;;;;;;;5011989;28;20436;-79
2022/10/07 14:51:53;;;;;;;0.20;0.20;;;;;;;;;;5028814;28;20454;-81
2022/10/07 14:54:19;;;;;;;0.17;0.17;;;;;;;;;;5011659;28;20435;-81
2022/10/07 14:56:45;;;;;;;0.20;0.20;;;;;;;;;;5030498;28;20421;-82
2022/10/07 14:59:14;;;;;;;0.30;0.30;;;;;;;;;;5014831;28;20510;-81
2022/10/07 15:01:41;;;;;;;0.10;0.10;;;;;;;;;;5014047;28;20415;-81
2022/10/07 15:04:10;;;;;;;0.13;0.13;;;;;;;;;;5028126;28;20504;-81
2022/10/07 15:06:36;;;;;;;0.10;0.10;;;;;;;;;;5011784;28;20481;-83
2022/10/07 15:09:03;;;;;;;0.03;0.03;;;;;;;;;;5010755;28;20428;-84
2022/10/07 15:11:29;;;;;;;0.70;0.40;;;;;;;;;;5029437;28;20511;-83
2022/10/07 15:13:55;;;;;;;0.10;0.10;;;;;;;;;;5015074;28;20777;-82
2022/10/07 15:16:22;;;;;;;0.10;0.10;;;;;;;;;;5015130;28;20903;-82